createdAt,value
2023-03-15T00:14:14.905Z,2.10
2023-03-15T00:26:16.831Z,1.50
2023-03-15T00:32:02.107Z,1.30
2023-03-15T00:37:52.584Z,1.20
2023-03-15T00:55:52.516Z,1.10
2023-03-15T01:01:56.713Z,1.10
2023-03-15T01:14:30.733Z,0.80
2023-03-15T01:20:32.829Z,0.70
2023-03-15T01:39:49.076Z,1.00
2023-03-15T01:45:54.226Z,0.90
2023-03-15T02:16:27.919Z,0.30
2023-03-15T02:35:17.932Z,0.30
2023-03-15T02:41:17.221Z,0.20
2023-03-15T02:53:08.232Z,0.10
2023-03-15T03:16:35.320Z,0.00
2023-03-15T03:40:19.589Z,0.00
2023-03-15T03:45:23.597Z,0.10
2023-03-15T03:50:26.670Z,0.20
2023-03-15T03:55:29.375Z,0.00
2023-03-15T04:00:33.352Z,-0.30
2023-03-15T04:05:36.371Z,-0.40
2023-03-15T04:10:39.012Z,-0.40
2023-03-15T04:15:43.020Z,-0.40
2023-03-15T04:20:47.955Z,-0.40
2023-03-15T04:25:51.430Z,-0.50
2023-03-15T04:30:58.622Z,-0.40
2023-03-15T04:36:02.806Z,-0.60
2023-03-15T04:41:11.094Z,-0.70
2023-03-15T04:46:15.117Z,-0.60
2023-03-15T04:51:17.811Z,-0.60
2023-03-15T04:56:20.576Z,-0.60
2023-03-15T05:01:29.919Z,-0.60
2023-03-15T05:06:32.599Z,-0.70
2023-03-15T05:11:35.286Z,-0.70
2023-03-15T05:16:39.406Z,-0.40
2023-03-15T05:21:42.109Z,-0.40
2023-03-15T05:26:46.564Z,-0.30
2023-03-15T05:31:53.147Z,-0.40
2023-03-15T05:36:55.871Z,-0.40
2023-03-15T05:41:58.606Z,-0.40
2023-03-15T05:47:02.583Z,-0.30
2023-03-15T05:52:05.914Z,-0.10
2023-03-15T05:57:08.902Z,0.00
2023-03-15T06:02:12.889Z,0.10
2023-03-15T06:07:15.683Z,0.30
2023-03-15T06:12:19.911Z,0.70
2023-03-15T06:17:23.901Z,1.30
2023-03-15T06:22:26.573Z,1.20
2023-03-15T06:27:29.233Z,1.40
2023-03-15T06:32:33.352Z,1.50
2023-03-15T06:37:36.700Z,1.60
2023-03-15T06:42:39.895Z,1.90
2023-03-15T06:47:43.847Z,2.10
2023-03-15T06:52:46.466Z,2.50
2023-03-15T06:57:49.166Z,2.90
2023-03-15T07:02:53.445Z,3.30
2023-03-15T07:07:56.157Z,3.50
2023-03-15T07:12:58.791Z,3.70
2023-03-15T07:18:03.344Z,3.90
2023-03-15T07:23:06.030Z,4.10
2023-03-15T07:28:08.660Z,4.30
2023-03-15T07:33:12.691Z,4.50
2023-03-15T07:38:15.340Z,4.70
2023-03-15T07:43:18.061Z,5.10
2023-03-15T07:48:22.140Z,5.50
2023-03-15T07:53:25.067Z,5.70
2023-03-15T07:58:27.805Z,6.10
2023-03-15T08:03:31.819Z,6.90
2023-03-15T08:08:34.612Z,9.50
2023-03-15T08:13:37.458Z,10.10
2023-03-15T08:18:41.404Z,12.40
2023-03-15T08:23:44.114Z,13.50
2023-03-15T08:28:46.778Z,15.00
2023-03-15T08:33:50.769Z,12.00
2023-03-15T08:38:53.480Z,9.80
2023-03-15T08:43:56.152Z,8.40
2023-03-15T08:49:00.138Z,7.90
2023-03-15T08:54:04.219Z,7.50
2023-03-15T08:59:06.939Z,6.90
2023-03-15T09:04:11.015Z,6.20
2023-03-15T09:09:17.465Z,5.20
2023-03-15T09:14:20.095Z,4.70
2023-03-15T09:19:24.054Z,4.30
2023-03-15T09:24:26.691Z,4.10
2023-03-15T09:29:29.338Z,4.30
2023-03-15T09:34:39.880Z,4.70
2023-03-15T09:39:44.393Z,5.20
2023-03-15T09:44:49.158Z,6.30
2023-03-15T09:49:58.074Z,8.30
2023-03-15T09:55:04.727Z,7.80
2023-03-15T10:00:12.518Z,7.10
2023-03-15T10:05:23.352Z,6.40
2023-03-15T10:10:32.392Z,6.10
2023-03-15T10:15:43.880Z,6.10
2023-03-15T10:20:54.586Z,5.90
2023-03-15T10:25:58.325Z,6.20
2023-03-15T10:31:09.064Z,6.30
2023-03-15T10:36:17.457Z,6.10
2023-03-15T10:41:36.977Z,6.00
2023-03-15T10:46:39.795Z,5.80
2023-03-15T10:51:45.954Z,5.60
2023-03-15T10:56:51.773Z,5.50
2023-03-15T11:02:08.017Z,5.70
2023-03-15T11:07:13.470Z,6.40
2023-03-15T11:12:24.031Z,7.00
2023-03-15T11:17:31.516Z,7.60
2023-03-15T11:22:35.499Z,7.90
2023-03-15T11:27:38.705Z,7.70
2023-03-15T11:32:44.044Z,7.90
2023-03-15T11:37:50.768Z,7.90
2023-03-15T11:42:58.778Z,7.60
2023-03-15T11:48:11.874Z,6.90
2023-03-15T11:53:17.681Z,6.40
2023-03-15T11:58:32.261Z,6.40
2023-03-15T12:03:43.438Z,6.70
2023-03-15T12:08:51.333Z,6.70
2023-03-15T12:14:04.926Z,7.10
2023-03-15T12:19:14.313Z,8.20
2023-03-15T12:24:24.310Z,9.20
2023-03-15T12:29:29.135Z,8.70
2023-03-15T12:34:38.292Z,8.50
2023-03-15T12:39:45.891Z,8.50
2023-03-15T12:44:48.554Z,8.80
2023-03-15T12:49:51.238Z,11.00
2023-03-15T12:55:02.071Z,11.60
2023-03-15T13:00:11.843Z,10.70
2023-03-15T13:05:23.703Z,9.10
2023-03-15T13:10:52.288Z,8.80
2023-03-15T13:16:18.764Z,10.00
2023-03-15T13:21:26.366Z,12.10
2023-03-15T13:26:41.925Z,12.00
2023-03-15T13:31:46.480Z,16.20
2023-03-15T13:36:55.482Z,15.70
2023-03-15T13:42:00.881Z,18.60
2023-03-15T13:47:03.603Z,19.40
2023-03-15T13:52:12.228Z,17.30
2023-03-15T13:57:19.205Z,20.20
2023-03-15T14:02:25.966Z,22.40
2023-03-15T14:07:34.321Z,22.70
2023-03-15T14:12:38.427Z,18.30
2023-03-15T14:17:53.563Z,16.50
2023-03-15T14:23:00.356Z,14.10
2023-03-15T14:28:05.356Z,11.20
2023-03-15T14:33:08.825Z,12.60
2023-03-15T14:38:18.770Z,12.60
2023-03-15T14:43:23.420Z,11.90
2023-03-15T14:48:29.223Z,11.20
2023-03-15T14:53:36.621Z,10.30
2023-03-15T14:58:41.866Z,11.50
2023-03-15T15:03:49.082Z,15.70
2023-03-15T15:08:56.355Z,16.20
2023-03-15T15:14:00.955Z,15.50
2023-03-15T15:19:04.675Z,14.30
2023-03-15T15:24:14.055Z,16.50
2023-03-15T15:29:18.133Z,13.10
2023-03-15T15:34:20.897Z,11.40
2023-03-15T15:39:33.090Z,10.80
2023-03-15T15:44:43.375Z,10.60
2023-03-15T15:50:17.919Z,11.70
2023-03-15T16:01:23.802Z,13.40
2023-03-15T16:06:43.948Z,14.70
2023-03-15T16:12:03.496Z,14.80
2023-03-15T16:17:15.549Z,12.50
2023-03-15T16:28:04.990Z,8.60
2023-03-15T16:33:46.041Z,8.50
2023-03-15T16:39:08.539Z,8.60
2023-03-15T16:44:21.156Z,8.60
2023-03-15T16:49:30.695Z,7.70
2023-03-15T16:54:43.481Z,7.00
2023-03-15T16:59:56.054Z,6.40
2023-03-15T17:05:06.951Z,6.10
2023-03-15T17:10:45.317Z,5.80
2023-03-15T17:16:21.590Z,5.60
2023-03-15T17:21:44.070Z,5.50
2023-03-15T17:26:58.606Z,5.20
2023-03-15T17:32:04.232Z,4.80
2023-03-15T17:37:49.284Z,4.60
2023-03-15T17:43:04.867Z,4.30
2023-03-15T17:48:14.958Z,4.30
2023-03-15T17:53:57.650Z,4.10
2023-03-15T18:04:57.131Z,3.90
2023-03-15T18:16:10.426Z,4.50
2023-03-15T18:21:33.497Z,4.40
2023-03-15T18:27:05.677Z,4.10
2023-03-15T18:32:37.853Z,3.80
2023-03-15T18:38:28.562Z,3.80
2023-03-15T18:43:49.833Z,3.80
2023-03-15T18:56:16.777Z,3.40
2023-03-15T19:01:39.853Z,3.20
2023-03-15T19:07:04.259Z,3.00
2023-03-15T19:12:20.812Z,2.70
2023-03-15T19:24:36.968Z,2.80
2023-03-15T19:30:15.893Z,2.50
2023-03-15T19:41:34.818Z,2.30
2023-03-15T19:46:58.946Z,2.30
2023-03-15T19:52:26.827Z,2.20
2023-03-15T19:58:17.685Z,2.10
2023-03-15T20:09:52.696Z,1.60
2023-03-15T21:10:12.796Z,0.20
2023-03-15T21:15:43.285Z,0.30
2023-03-15T21:21:12.772Z,0.20
2023-03-15T21:43:55.544Z,-0.10
2023-03-15T21:48:59.527Z,-0.10
2023-03-15T21:54:02.253Z,-0.20
2023-03-15T21:59:04.901Z,-0.20
2023-03-15T22:04:09.318Z,-0.20
2023-03-15T22:09:11.988Z,-0.20
2023-03-15T22:14:14.843Z,-0.20
2023-03-15T22:19:19.060Z,-0.20
2023-03-15T22:24:21.676Z,-0.30
2023-03-15T22:29:24.318Z,-0.40
2023-03-15T22:34:28.402Z,-0.50
2023-03-15T22:39:33.994Z,-0.50
2023-03-15T22:44:36.738Z,-0.60
2023-03-15T22:49:40.909Z,-0.70
2023-03-15T22:54:43.713Z,-0.70
2023-03-15T22:59:46.376Z,-0.60
2023-03-15T23:04:50.390Z,-0.70
2023-03-15T23:09:53.132Z,-0.90
2023-03-15T23:14:55.824Z,-0.80
2023-03-15T23:19:59.842Z,-0.90
2023-03-15T23:25:02.933Z,-1.00
2023-03-15T23:30:07.260Z,-1.10
2023-03-15T23:35:13.150Z,-1.20
2023-03-15T23:40:16.820Z,-1.10
2023-03-15T23:45:19.726Z,-1.20
2023-03-15T23:50:25.985Z,-1.10
2023-03-15T23:55:29.337Z,-1.20
